Time;durP1;ratioP1;P1;durP2;ratioP2;P2;SDS_P1;SDS_P2;PMS_P1;PMS_P2;Temp;Humidity;BMP_temperature;BMP_pressure;BME280_temperature;BME280_humidity;BME280_pressure;Samples;Min_cycle;Max_cycle;Signal;HPM_P1;HPM_P2
2023/03/29 00:03:44;;;;;;;;;;;;;;;3.34;100.00;96150.72;10515550;28;1974;-73
2023/03/29 00:08:49;;;;;;;;;;;;;;;3.43;100.00;96167.19;10523205;28;1979;-72
2023/03/29 00:13:52;;;;;;;;;;;;;;;3.56;100.00;96182.19;10519109;28;2001;-72
2023/03/29 00:18:55;;;;;;;;;;;;;;;3.50;100.00;96192.69;10512699;28;2103;-72
2023/03/29 00:23:58;;;;;;;;;;;;;;;3.48;100.00;96205.38;10512573;28;1987;-75
2023/03/29 00:29:00;;;;;;;;;;;;;;;3.23;100.00;96201.91;10521428;28;2093;-72
2023/03/29 00:34:03;;;;;;;;;;;;;;;3.14;100.00;96219.97;10500389;28;2100;-73
2023/03/29 00:39:06;;;;;;;;;;;;;;;3.16;100.00;96217.91;10511502;28;2130;-72
2023/03/29 00:44:10;;;;;;;;;;;;;;;3.11;100.00;96204.44;10522305;28;1913;-71
2023/03/29 00:49:14;;;;;;;;;;;;;;;3.21;100.00;96204.78;10512150;28;1954;-71
2023/03/29 00:54:17;;;;;;;;;;;;;;;3.21;100.00;96210.09;10524044;28;2086;-71
2023/03/29 00:59:20;;;;;;;;;;;;;;;3.16;100.00;96201.97;10510643;28;1962;-73
2023/03/29 01:04:22;;;;;;;;;;;;;;;3.09;100.00;96201.22;10508589;28;1986;-77
2023/03/29 01:09:25;;;;;;;;;;;;;;;3.03;100.00;96209.22;10507812;28;1948;-72
2023/03/29 01:14:28;;;;;;;;;;;;;;;2.87;100.00;96197.28;10518446;28;1935;-69
2023/03/29 01:19:32;;;;;;;;;;;;;;;2.88;100.00;96183.00;10522986;28;1953;-71
2023/03/29 01:24:35;;;;;;;;;;;;;;;2.79;100.00;96181.59;10520556;28;2045;-72
2023/03/29 01:29:37;;;;;;;;;;;;;;;2.76;100.00;96158.16;10504972;28;2053;-73
2023/03/29 01:34:50;;;;;;;;;;;;;;;2.76;100.00;96166.13;10485822;28;1998;-72
2023/03/29 01:39:53;;;;;;;;;;;;;;;2.76;100.00;96160.81;10506614;28;1966;-75
2023/03/29 01:44:55;;;;;;;;;;;;;;;2.70;100.00;96142.06;10508775;28;1966;-72
2023/03/29 01:49:58;;;;;;;;;;;;;;;2.74;100.00;96120.41;10516137;28;1923;-72
2023/03/29 01:55:00;;;;;;;;;;;;;;;2.74;100.00;96112.44;10518974;28;1742;-74
2023/03/29 02:00:13;;;;;;;;;;;;;;;2.78;100.00;96108.31;10518553;28;1736;-74
2023/03/29 02:05:16;;;;;;;;;;;;;;;2.77;100.00;96107.50;10520974;28;1980;-72
2023/03/29 02:10:19;;;;;;;;;;;;;;;2.79;100.00;96094.00;10501758;28;2123;-72
2023/03/29 02:15:22;;;;;;;;;;;;;;;2.87;100.00;96089.25;10509540;28;1956;-74
2023/03/29 02:20:24;;;;;;;;;;;;;;;2.91;100.00;96086.94;10505897;28;2022;-73
2023/03/29 02:25:28;;;;;;;;;;;;;;;2.92;100.00;96084.06;10503015;28;1982;-73
2023/03/29 02:30:31;;;;;;;;;;;;;;;3.00;100.00;96074.22;10487917;28;1974;-75
2023/03/29 02:35:35;;;;;;;;;;;;;;;3.00;100.00;96068.91;10507600;28;2039;-74
2023/03/29 02:40:37;;;;;;;;;;;;;;;2.95;100.00;96062.41;10513512;28;2470;-73
2023/03/29 02:45:40;;;;;;;;;;;;;;;2.99;100.00;96057.47;10507177;28;2123;-77
2023/03/29 02:50:44;;;;;;;;;;;;;;;2.96;100.00;96048.09;10501899;28;2020;-74
2023/03/29 02:55:47;;;;;;;;;;;;;;;2.91;100.00;96031.19;10508030;28;2022;-73
2023/03/29 03:00:53;;;;;;;;;;;;;;;2.98;100.00;96035.41;10502762;28;1991;-74
2023/03/29 03:05:56;;;;;;;;;;;;;;;2.94;100.00;96028.13;10501399;28;2069;-72
2023/03/29 03:10:59;;;;;;;;;;;;;;;2.91;100.00;96017.91;10511143;28;2105;-76
2023/03/29 03:16:02;;;;;;;;;;;;;;;2.90;100.00;96017.09;10512197;28;1933;-73
2023/03/29 03:21:05;;;;;;;;;;;;;;;2.88;100.00;96007.75;10511212;28;1938;-73
2023/03/29 03:26:07;;;;;;;;;;;;;;;2.78;100.00;95996.81;10509302;28;2120;-76
2023/03/29 03:31:10;;;;;;;;;;;;;;;2.78;100.00;95987.00;10512130;28;1947;-74
2023/03/29 03:36:12;;;;;;;;;;;;;;;2.76;100.00;95983.75;10510950;28;2053;-75
2023/03/29 03:41:17;;;;;;;;;;;;;;;2.64;100.00;95981.00;10512747;28;2047;-73
2023/03/29 03:46:20;;;;;;;;;;;;;;;2.56;100.00;95977.81;10517078;28;2136;-73
2023/03/29 03:51:24;;;;;;;;;;;;;;;2.39;100.00;95967.75;10519432;28;1999;-77
2023/03/29 03:56:28;;;;;;;;;;;;;;;2.23;100.00;95962.16;10514781;28;1948;-73
2023/03/29 04:01:32;;;;;;;;;;;;;;;2.09;100.00;95956.97;10510628;28;2085;-73
2023/03/29 04:06:35;;;;;;;;;;;;;;;1.97;100.00;95947.28;10532954;28;1994;-72
2023/03/29 04:11:37;;;;;;;;;;;;;;;2.05;100.00;95941.72;10519535;28;1982;-72
2023/03/29 04:16:40;;;;;;;;;;;;;;;2.18;100.00;95954.88;10515076;28;1970;-73
2023/03/29 04:21:44;;;;;;;;;;;;;;;2.34;100.00;95954.31;10507673;28;2068;-74
2023/03/29 04:26:47;;;;;;;;;;;;;;;2.47;100.00;95926.84;10511747;28;2023;-73
2023/03/29 04:31:49;;;;;;;;;;;;;;;2.63;100.00;95926.31;10512923;28;1998;-74
2023/03/29 04:36:53;;;;;;;;;;;;;;;2.76;100.00;95921.88;10515053;28;1996;-71
2023/03/29 04:41:56;;;;;;;;;;;;;;;2.83;100.00;95909.34;10519916;28;2215;-73
2023/03/29 04:47:02;;;;;;;;;;;;;;;2.92;100.00;95915.97;10517118;28;2143;-74
2023/03/29 04:52:07;;;;;;;;;;;;;;;2.98;100.00;95915.91;10516799;28;1979;-74
2023/03/29 04:57:10;;;;;;;;;;;;;;;3.16;100.00;95899.13;10527986;28;1930;-74
2023/03/29 05:02:12;;;;;;;;;;;;;;;3.25;100.00;95902.31;10485670;28;2241;-73
2023/03/29 05:07:16;;;;;;;;;;;;;;;3.48;100.00;95888.28;10509402;28;2005;-73
2023/03/29 05:12:20;;;;;;;;;;;;;;;3.66;100.00;95892.75;10511244;28;2017;-72
2023/03/29 05:17:22;;;;;;;;;;;;;;;3.82;100.00;95901.91;10515501;28;2033;-73
2023/03/29 05:22:25;;;;;;;;;;;;;;;3.97;100.00;95902.31;10512440;28;2152;-73
2023/03/29 05:27:28;;;;;;;;;;;;;;;4.13;100.00;95901.63;10516216;28;2069;-72
2023/03/29 05:32:31;;;;;;;;;;;;;;;4.24;100.00;95890.19;10517884;28;2058;-72
2023/03/29 05:37:34;;;;;;;;;;;;;;;4.39;100.00;95897.72;10514978;28;2088;-73
2023/03/29 05:42:37;;;;;;;;;;;;;;;4.60;100.00;95904.31;10517858;28;2065;-72
2023/03/29 05:47:41;;;;;;;;;;;;;;;4.75;100.00;95906.50;10497548;28;2008;-73
2023/03/29 05:52:44;;;;;;;;;;;;;;;4.88;100.00;95900.91;10500260;28;2101;-73
2023/03/29 05:57:48;;;;;;;;;;;;;;;5.00;100.00;95898.22;10514318;28;2054;-71
2023/03/29 06:02:51;;;;;;;;;;;;;;;5.21;100.00;95894.91;10510001;28;2183;-73
2023/03/29 06:07:55;;;;;;;;;;;;;;;5.33;100.00;95887.69;10506892;28;2144;-71
2023/03/29 06:12:58;;;;;;;;;;;;;;;5.45;100.00;95886.84;10508518;28;1969;-72
2023/03/29 06:18:02;;;;;;;;;;;;;;;5.55;100.00;95881.72;10504847;28;1958;-72
2023/03/29 06:23:05;;;;;;;;;;;;;;;5.66;100.00;95883.50;10515112;28;2102;-72
2023/03/29 06:28:07;;;;;;;;;;;;;;;5.68;100.00;95889.41;10499018;28;2104;-71
2023/03/29 06:33:13;;;;;;;;;;;;;;;5.78;100.00;95905.59;10518823;28;2073;-73
2023/03/29 06:38:18;;;;;;;;;;;;;;;5.99;100.00;95906.78;10504443;28;2062;-72
2023/03/29 06:43:21;;;;;;;;;;;;;;;6.22;100.00;95911.97;10505209;28;1876;-74
2023/03/29 06:48:24;;;;;;;;;;;;;;;6.54;100.00;95907.91;10523383;28;2132;-73
2023/03/29 06:53:27;;;;;;;;;;;;;;;6.76;100.00;95906.13;10500376;28;1934;-70
2023/03/29 06:58:29;;;;;;;;;;;;;;;6.96;100.00;95903.72;10496124;28;2049;-71
2023/03/29 07:03:34;;;;;;;;;;;;;;;7.17;100.00;95895.94;10509042;28;1959;-73
2023/03/29 07:08:42;;;;;;;;;;;;;;;7.27;100.00;95890.72;10516375;28;2004;-73
2023/03/29 07:13:45;;;;;;;;;;;;;;;7.38;100.00;95897.81;10522719;28;1991;-74
2023/03/29 07:18:48;;;;;;;;;;;;;;;7.74;100.00;95901.66;10524361;28;1970;-73
2023/03/29 07:23:51;;;;;;;;;;;;;;;7.88;100.00;95896.72;10516124;28;2146;-73
2023/03/29 07:28:55;;;;;;;;;;;;;;;8.34;100.00;95883.75;10511189;28;1970;-73
2023/03/29 07:33:59;;;;;;;;;;;;;;;8.77;100.00;95892.63;10514706;28;1959;-74
2023/03/29 07:39:14;;;;;;;;;;;;;;;9.04;100.00;95903.25;10520022;28;1915;-73
2023/03/29 07:44:18;;;;;;;;;;;;;;;9.13;100.00;95901.66;10507710;28;1959;-74
2023/03/29 07:49:20;;;;;;;;;;;;;;;9.33;100.00;95892.91;10509677;28;2039;-73
2023/03/29 07:54:24;;;;;;;;;;;;;;;9.48;100.00;95915.25;10511867;28;2066;-72
2023/03/29 07:59:27;;;;;;;;;;;;;;;9.40;100.00;95906.88;10509237;28;2006;-73
2023/03/29 08:04:30;;;;;;;;;;;;;;;9.09;100.00;95912.09;10506497;28;1988;-72
2023/03/29 08:09:36;;;;;;;;;;;;;;;9.16;100.00;95923.44;10512276;28;1979;-72
2023/03/29 08:14:38;;;;;;;;;;;;;;;9.73;100.00;95911.84;10520204;28;1993;-78
2023/03/29 08:19:41;;;;;;;;;;;;;;;9.97;100.00;95916.69;10515720;28;2208;-72
2023/03/29 08:24:52;;;;;;;;;;;;;;;9.60;100.00;95917.69;10517910;28;1934;-73
2023/03/29 08:29:55;;;;;;;;;;;;;;;9.85;100.00;95913.44;10519187;28;2124;-72
2023/03/29 08:34:58;;;;;;;;;;;;;;;10.03;100.00;95908.38;10520927;28;1907;-73
2023/03/29 08:40:00;;;;;;;;;;;;;;;9.92;100.00;95914.00;10517927;28;1967;-74
2023/03/29 08:45:03;;;;;;;;;;;;;;;9.83;100.00;95915.59;10514347;28;1910;-73
2023/03/29 08:50:06;;;;;;;;;;;;;;;9.87;100.00;95916.69;10515253;28;1971;-74
2023/03/29 08:55:10;;;;;;;;;;;;;;;10.39;100.00;95911.16;10514228;28;2018;-74
2023/03/29 09:00:12;;;;;;;;;;;;;;;10.60;100.00;95908.44;10516615;28;2112;-72
2023/03/29 09:05:16;;;;;;;;;;;;;;;11.32;100.00;95904.50;10512337;28;1980;-73
2023/03/29 09:10:19;;;;;;;;;;;;;;;11.68;100.00;95885.53;10506221;28;2107;-72
2023/03/29 09:15:22;;;;;;;;;;;;;;;11.64;100.00;95902.25;10507137;28;2251;-74
2023/03/29 09:20:25;;;;;;;;;;;;;;;11.74;100.00;95911.34;10509720;28;1983;-71
2023/03/29 09:25:29;;;;;;;;;;;;;;;11.99;100.00;95907.75;10511328;28;2010;-74
2023/03/29 09:30:34;;;;;;;;;;;;;;;12.16;96.71;95910.88;10509753;28;2064;-73
2023/03/29 09:35:36;;;;;;;;;;;;;;;11.94;100.00;95905.88;10516184;28;1978;-72
2023/03/29 09:40:40;;;;;;;;;;;;;;;11.92;97.24;95916.13;10510912;28;1999;-73
2023/03/29 09:45:42;;;;;;;;;;;;;;;11.84;98.69;95906.75;10510261;28;1909;-72
2023/03/29 09:50:46;;;;;;;;;;;;;;;11.60;100.00;95911.16;10512614;28;1960;-73
2023/03/29 09:55:48;;;;;;;;;;;;;;;11.90;98.96;95905.63;10507084;28;1954;-75
2023/03/29 10:00:51;;;;;;;;;;;;;;;12.29;98.52;95895.94;10506213;28;1990;-72
2023/03/29 10:05:54;;;;;;;;;;;;;;;12.41;95.75;95894.50;10510957;28;2068;-72
2023/03/29 10:10:57;;;;;;;;;;;;;;;12.55;91.79;95888.47;10503810;28;2039;-72
2023/03/29 10:16:00;;;;;;;;;;;;;;;13.54;84.17;95877.97;10507483;28;2099;-72
2023/03/29 10:21:03;;;;;;;;;;;;;;;13.92;79.26;95867.22;10506462;28;2083;-73
2023/03/29 10:26:05;;;;;;;;;;;;;;;14.36;76.88;95880.31;10504092;28;1978;-73
2023/03/29 10:31:08;;;;;;;;;;;;;;;14.32;70.38;95865.81;10505886;28;2030;-71
2023/03/29 10:36:20;;;;;;;;;;;;;;;13.90;70.77;95874.81;10515005;28;1950;-77
2023/03/29 10:41:23;;;;;;;;;;;;;;;13.67;74.52;95860.25;10508932;28;1991;-74
2023/03/29 10:46:26;;;;;;;;;;;;;;;14.32;72.37;95860.41;10497761;28;2003;-73
2023/03/29 10:51:29;;;;;;;;;;;;;;;14.13;70.81;95860.41;10506221;28;2006;-72
2023/03/29 10:56:31;;;;;;;;;;;;;;;14.27;70.14;95863.19;10505792;28;1971;-71
2023/03/29 11:01:34;;;;;;;;;;;;;;;14.14;71.14;95853.13;10514236;28;1954;-73
2023/03/29 11:06:37;;;;;;;;;;;;;;;14.24;67.39;95855.63;10510421;28;2007;-72
2023/03/29 11:11:43;;;;;;;;;;;;;;;14.16;69.29;95850.91;10508613;28;2098;-73
2023/03/29 11:16:46;;;;;;;;;;;;;;;14.58;65.44;95845.38;10508089;28;1944;-74
2023/03/29 11:21:49;;;;;;;;;;;;;;;15.01;65.55;95845.13;10507928;28;1966;-76
2023/03/29 11:26:53;;;;;;;;;;;;;;;15.27;61.96;95839.22;10507607;28;1978;-72
2023/03/29 11:31:56;;;;;;;;;;;;;;;15.39;58.47;95844.94;10495401;28;1959;-72
2023/03/29 11:36:58;;;;;;;;;;;;;;;15.43;57.92;95845.94;10489537;28;1899;-71
2023/03/29 11:42:02;;;;;;;;;;;;;;;15.04;58.90;95838.34;10503014;28;1966;-71
2023/03/29 11:47:06;;;;;;;;;;;;;;;14.88;59.14;95848.63;10504476;28;2086;-73
2023/03/29 11:52:09;;;;;;;;;;;;;;;14.86;57.12;95840.00;10507376;28;2030;-72
2023/03/29 11:57:12;;;;;;;;;;;;;;;14.97;57.15;95846.84;10511599;28;2040;-73
2023/03/29 12:02:14;;;;;;;;;;;;;;;15.14;56.28;95825.41;10504175;28;2006;-70
2023/03/29 12:07:17;;;;;;;;;;;;;;;15.16;53.36;95829.72;10519010;28;1979;-71
2023/03/29 12:12:20;;;;;;;;;;;;;;;14.81;52.61;95818.44;10519332;28;1896;-70
2023/03/29 12:17:23;;;;;;;;;;;;;;;14.71;53.06;95818.66;10517528;28;2044;-71
2023/03/29 12:22:26;;;;;;;;;;;;;;;14.53;52.43;95828.44;10515707;28;2067;-72
2023/03/29 12:27:28;;;;;;;;;;;;;;;14.61;53.51;95822.34;10517249;28;2043;-72
2023/03/29 12:32:31;;;;;;;;;;;;;;;14.50;53.21;95812.78;10496596;28;2112;-70
2023/03/29 12:37:38;;;;;;;;;;;;;;;14.70;52.23;95800.81;10509349;28;2089;-71
2023/03/29 12:42:41;;;;;;;;;;;;;;;14.68;52.41;95786.78;10513056;28;1991;-72
2023/03/29 12:47:44;;;;;;;;;;;;;;;14.74;51.43;95801.81;10508728;28;2025;-71
2023/03/29 12:52:46;;;;;;;;;;;;;;;14.59;50.97;95798.28;10508700;28;2205;-72
2023/03/29 12:57:49;;;;;;;;;;;;;;;14.31;51.85;95792.00;10518874;28;1999;-73
2023/03/29 13:03:02;;;;;;;;;;;;;;;14.10;52.68;95782.59;10513619;28;2045;-72
2023/03/29 13:08:04;;;;;;;;;;;;;;;14.58;52.51;95793.97;10503889;28;2086;-73
2023/03/29 13:13:07;;;;;;;;;;;;;;;15.09;51.88;95790.31;10509018;28;1997;-72
2023/03/29 13:18:09;;;;;;;;;;;;;;;15.28;51.03;95770.44;10510906;28;2030;-75
2023/03/29 13:23:14;;;;;;;;;;;;;;;15.31;51.22;95775.22;10508013;28;2045;-74
2023/03/29 13:28:19;;;;;;;;;;;;;;;15.01;53.40;95779.38;10508128;28;2026;-72
2023/03/29 13:33:22;;;;;;;;;;;;;;;15.17;52.90;95766.34;10507714;28;2126;-72
2023/03/29 13:38:27;;;;;;;;;;;;;;;15.85;50.72;95752.66;10512103;28;2051;-74
2023/03/29 13:43:30;;;;;;;;;;;;;;;16.19;50.51;95740.44;10486401;28;1966;-72
2023/03/29 13:48:33;;;;;;;;;;;;;;;16.14;49.14;95740.56;10513077;28;2164;-72
2023/03/29 13:53:36;;;;;;;;;;;;;;;16.05;49.20;95747.84;10523840;28;1432;-72
2023/03/29 13:58:40;;;;;;;;;;;;;;;16.24;50.31;95739.50;10518842;28;940;-72
2023/03/29 14:03:43;;;;;;;;;;;;;;;16.75;47.38;95741.72;10516938;28;1920;-71
2023/03/29 14:08:45;;;;;;;;;;;;;;;16.33;45.46;95743.88;10509543;28;1985;-72
2023/03/29 14:13:48;;;;;;;;;;;;;;;15.66;44.68;95736.56;10514385;28;2057;-72
2023/03/29 14:18:53;;;;;;;;;;;;;;;15.10;43.04;95735.06;10510455;28;1954;-74
2023/03/29 14:23:56;;;;;;;;;;;;;;;15.37;43.90;95719.84;10504290;28;2034;-71
2023/03/29 14:28:59;;;;;;;;;;;;;;;15.53;43.59;95723.84;10508104;28;1982;-71
2023/03/29 14:34:02;;;;;;;;;;;;;;;15.40;45.52;95730.09;10516760;28;2119;-74
2023/03/29 14:39:05;;;;;;;;;;;;;;;15.34;46.75;95740.22;10509988;28;1950;-74
2023/03/29 14:44:08;;;;;;;;;;;;;;;14.93;49.05;95723.22;10526987;27;1959;-74
2023/03/29 14:49:10;;;;;;;;;;;;;;;14.44;51.12;95741.75;10516064;28;2047;-72
2023/03/29 14:54:13;;;;;;;;;;;;;;;14.38;52.47;95729.41;10496238;28;2086;-73
2023/03/29 14:59:16;;;;;;;;;;;;;;;13.96;56.04;95744.72;10506005;28;1966;-74
2023/03/29 15:04:19;;;;;;;;;;;;;;;14.03;55.83;95738.94;10510533;28;2011;-74
2023/03/29 15:09:22;;;;;;;;;;;;;;;13.80;58.36;95746.06;10517726;28;1982;-72
2023/03/29 15:14:25;;;;;;;;;;;;;;;13.71;62.04;95735.13;10509046;28;2129;-72
2023/03/29 15:19:28;;;;;;;;;;;;;;;13.83;64.20;95739.28;10490850;28;2023;-74
2023/03/29 15:24:32;;;;;;;;;;;;;;;13.40;72.77;95756.38;10510964;28;2015;-72
2023/03/29 15:29:35;;;;;;;;;;;;;;;12.99;96.99;95748.81;10510717;28;2106;-72
2023/03/29 15:34:38;;;;;;;;;;;;;;;12.59;99.37;95760.06;10487995;28;1930;-72
2023/03/29 15:39:41;;;;;;;;;;;;;;;12.31;99.62;95749.03;10512424;28;2099;-73
2023/03/29 15:44:43;;;;;;;;;;;;;;;12.32;100.00;95750.63;10511209;28;1978;-72
2023/03/29 15:49:46;;;;;;;;;;;;;;;12.08;100.00;95739.78;10510567;28;2036;-72
2023/03/29 15:54:49;;;;;;;;;;;;;;;12.29;100.00;95735.03;10514620;28;1975;-72
2023/03/29 15:59:52;;;;;;;;;;;;;;;12.31;100.00;95727.47;10497079;28;1967;-71
2023/03/29 16:04:54;;;;;;;;;;;;;;;12.04;100.00;95730.69;10513724;28;1916;-72
2023/03/29 16:09:56;;;;;;;;;;;;;;;12.02;100.00;95729.34;10506782;28;2048;-73
2023/03/29 16:14:59;;;;;;;;;;;;;;;11.87;100.00;95723.03;10488588;28;1961;-73
2023/03/29 16:20:03;;;;;;;;;;;;;;;11.95;100.00;95724.28;10510976;28;2026;-67
2023/03/29 16:25:07;;;;;;;;;;;;;;;11.90;100.00;95733.25;10508701;28;1955;-70
2023/03/29 16:30:10;;;;;;;;;;;;;;;11.88;100.00;95734.59;10513091;28;1953;-69
2023/03/29 16:35:13;;;;;;;;;;;;;;;11.81;100.00;95734.91;10510183;28;1951;-69
2023/03/29 16:40:17;;;;;;;;;;;;;;;11.74;100.00;95734.41;10507469;28;1911;-69
2023/03/29 16:45:19;;;;;;;;;;;;;;;11.66;100.00;95724.25;10514246;28;2114;-68
2023/03/29 16:50:22;;;;;;;;;;;;;;;11.59;100.00;95726.47;10503869;28;2038;-71
2023/03/29 16:55:25;;;;;;;;;;;;;;;11.35;100.00;95732.53;10516033;28;2006;-69
2023/03/29 17:00:28;;;;;;;;;;;;;;;10.78;100.00;95728.53;10510573;28;2108;-68
2023/03/29 17:05:32;;;;;;;;;;;;;;;10.42;100.00;95735.91;10502093;28;2031;-76
2023/03/29 17:10:35;;;;;;;;;;;;;;;10.15;100.00;95713.94;10510120;28;2094;-68
2023/03/29 17:15:39;;;;;;;;;;;;;;;10.07;100.00;95728.72;10509935;28;2190;-68
2023/03/29 17:20:42;;;;;;;;;;;;;;;9.95;100.00;95709.41;10512175;28;2039;-69
2023/03/29 17:25:44;;;;;;;;;;;;;;;9.95;100.00;95709.41;10516104;28;2279;-70
2023/03/29 17:30:57;;;;;;;;;;;;;;;9.98;100.00;95714.22;10519446;28;1985;-69
2023/03/29 17:35:59;;;;;;;;;;;;;;;10.00;100.00;95720.94;10509276;28;2080;-68
2023/03/29 17:41:03;;;;;;;;;;;;;;;10.02;100.00;95723.34;10494421;28;2172;-69
2023/03/29 17:46:05;;;;;;;;;;;;;;;9.96;100.00;95713.69;10508591;28;2016;-77
2023/03/29 17:51:08;;;;;;;;;;;;;;;9.88;100.00;95730.38;10512082;28;2045;-67
2023/03/29 17:56:11;;;;;;;;;;;;;;;9.96;100.00;95719.88;10507444;28;2011;-73
2023/03/29 18:01:14;;;;;;;;;;;;;;;9.96;100.00;95721.75;10505906;28;2154;-71
2023/03/29 18:06:19;;;;;;;;;;;;;;;9.94;100.00;95727.41;10510218;28;2170;-71
2023/03/29 18:11:23;;;;;;;;;;;;;;;10.05;100.00;95730.84;10522934;28;1914;-71
2023/03/29 18:16:26;;;;;;;;;;;;;;;9.95;100.00;95731.69;10521207;28;1761;-71
2023/03/29 18:21:29;;;;;;;;;;;;;;;9.92;100.00;95720.69;10522912;28;1848;-70
2023/03/29 18:26:32;;;;;;;;;;;;;;;9.84;100.00;95730.09;10523858;28;1741;-68
2023/03/29 18:31:35;;;;;;;;;;;;;;;9.71;100.00;95736.81;10536021;28;1909;-70
2023/03/29 18:36:37;;;;;;;;;;;;;;;9.70;100.00;95727.13;10504017;28;1786;-72
2023/03/29 18:41:40;;;;;;;;;;;;;;;9.66;100.00;95728.75;10525384;28;1785;-70
2023/03/29 18:46:43;;;;;;;;;;;;;;;9.70;100.00;95727.13;10522417;28;1892;-70
2023/03/29 18:51:48;;;;;;;;;;;;;;;9.69;100.00;95730.91;10526661;28;1898;-72
2023/03/29 18:56:51;;;;;;;;;;;;;;;9.54;100.00;95738.94;10526940;28;1468;-69
2023/03/29 19:01:54;;;;;;;;;;;;;;;9.54;100.00;95744.31;10528043;28;1535;-70
2023/03/29 19:06:58;;;;;;;;;;;;;;;9.52;100.00;95737.59;10529918;28;1808;-67
2023/03/29 19:12:00;;;;;;;;;;;;;;;9.55;100.00;95737.88;10528238;28;1985;-69
2023/03/29 19:17:03;;;;;;;;;;;;;;;9.51;100.00;95739.47;10533061;28;1531;-70
2023/03/29 19:22:06;;;;;;;;;;;;;;;9.40;100.00;95737.84;10530815;28;1820;-70
2023/03/29 19:27:12;;;;;;;;;;;;;;;9.42;100.00;95738.41;10532900;28;2267;-72
2023/03/29 19:32:15;;;;;;;;;;;;;;;9.45;100.00;95732.50;10534288;28;1921;-73
2023/03/29 19:37:19;;;;;;;;;;;;;;;9.39;100.00;95728.19;10533273;28;1781;-72
2023/03/29 19:42:21;;;;;;;;;;;;;;;9.27;100.00;95733.81;10537629;28;1884;-68
2023/03/29 19:47:25;;;;;;;;;;;;;;;9.17;100.00;95731.94;10538901;28;1934;-71
2023/03/29 19:52:29;;;;;;;;;;;;;;;9.25;100.00;95727.13;10534154;28;2036;-69
2023/03/29 19:57:32;;;;;;;;;;;;;;;9.26;100.00;95728.72;10537313;28;1840;-69
2023/03/29 20:02:35;;;;;;;;;;;;;;;9.38;100.00;95726.59;10533317;28;1737;-69
2023/03/29 20:07:44;;;;;;;;;;;;;;;9.42;100.00;95733.84;10535962;28;1709;-70
2023/03/29 20:12:47;;;;;;;;;;;;;;;9.50;100.00;95735.19;10532435;28;1914;-76
2023/03/29 20:17:51;;;;;;;;;;;;;;;9.57;100.00;95735.72;10540587;28;1851;-70
2023/03/29 20:23:00;;;;;;;;;;;;;;;9.43;100.00;95723.94;10540605;28;1491;-70
2023/03/29 20:28:06;;;;;;;;;;;;;;;9.23;100.00;95715.84;10537858;28;1867;-70
2023/03/29 20:33:09;;;;;;;;;;;;;;;9.14;100.00;95715.56;10529492;28;1809;-69
2023/03/29 20:38:12;;;;;;;;;;;;;;;9.07;100.00;95713.13;10520663;28;1982;-71
2023/03/29 20:43:17;;;;;;;;;;;;;;;9.07;100.00;95705.09;10517431;28;1955;-69
2023/03/29 20:48:21;;;;;;;;;;;;;;;9.20;100.00;95715.28;10513432;28;2033;-70
2023/03/29 20:53:33;;;;;;;;;;;;;;;9.23;100.00;95691.72;10515250;28;1990;-68
2023/03/29 20:58:45;;;;;;;;;;;;;;;9.20;100.00;95688.47;10519095;28;1993;-69
2023/03/29 21:03:50;;;;;;;;;;;;;;;9.42;100.00;95672.16;10521205;28;1947;-68
2023/03/29 21:09:03;;;;;;;;;;;;;;;9.35;100.00;95668.09;10521117;28;1915;-71
2023/03/29 21:14:08;;;;;;;;;;;;;;;9.41;100.00;95651.72;10519021;28;1879;-67
2023/03/29 21:19:10;;;;;;;;;;;;;;;9.52;100.00;95649.84;10511248;28;2066;-69
2023/03/29 21:24:13;;;;;;;;;;;;;;;9.51;100.00;95623.31;10520348;28;1936;-70
2023/03/29 21:29:16;;;;;;;;;;;;;;;9.41;100.00;95632.16;10515023;28;1939;-69
2023/03/29 21:34:18;;;;;;;;;;;;;;;9.45;100.00;95630.53;10515036;28;1943;-70
2023/03/29 21:39:21;;;;;;;;;;;;;;;9.48;100.00;95636.19;10513197;28;2047;-69
2023/03/29 21:44:25;;;;;;;;;;;;;;;9.47;100.00;95628.38;10512638;28;1982;-69
2023/03/29 21:49:28;;;;;;;;;;;;;;;9.48;100.00;95628.16;10517594;28;2015;-69
2023/03/29 21:54:30;;;;;;;;;;;;;;;9.54;100.00;95631.59;10512886;28;1915;-70
2023/03/29 21:59:33;;;;;;;;;;;;;;;9.55;100.00;95632.44;10511859;28;1982;-77
2023/03/29 22:04:36;;;;;;;;;;;;;;;9.61;100.00;95621.41;10513774;28;1974;-69
2023/03/29 22:09:40;;;;;;;;;;;;;;;9.64;100.00;95628.91;10498351;28;2253;-70
2023/03/29 22:14:43;;;;;;;;;;;;;;;9.58;100.00;95630.00;10511301;28;1974;-69
2023/03/29 22:19:46;;;;;;;;;;;;;;;9.63;100.00;95621.94;10513363;28;1975;-70
2023/03/29 22:24:58;;;;;;;;;;;;;;;9.57;100.00;95617.66;10517460;28;1989;-70
2023/03/29 22:30:01;;;;;;;;;;;;;;;9.52;100.00;95606.13;10506043;28;2059;-72
2023/03/29 22:35:03;;;;;;;;;;;;;;;9.44;100.00;95610.16;10510628;28;2122;-69
2023/03/29 22:40:08;;;;;;;;;;;;;;;9.49;100.00;95602.13;10513663;28;1931;-69
2023/03/29 22:45:12;;;;;;;;;;;;;;;9.43;100.00;95590.59;10517074;28;2015;-70
2023/03/29 22:50:16;;;;;;;;;;;;;;;9.34;100.00;95589.50;10515498;28;1955;-70
2023/03/29 22:55:20;;;;;;;;;;;;;;;9.30;100.00;95584.97;10518031;28;1990;-70
2023/03/29 23:00:23;;;;;;;;;;;;;;;9.29;100.00;95578.81;10525001;28;2018;-70
2023/03/29 23:05:35;;;;;;;;;;;;;;;9.32;100.00;95577.44;10516073;28;1912;-71
2023/03/29 23:10:38;;;;;;;;;;;;;;;9.31;100.00;95565.13;10514582;28;1921;-67
2023/03/29 23:15:41;;;;;;;;;;;;;;;9.23;100.00;95566.47;10511674;28;1994;-69
2023/03/29 23:20:45;;;;;;;;;;;;;;;9.26;100.00;95557.06;10518330;28;2148;-69
2023/03/29 23:25:48;;;;;;;;;;;;;;;9.34;100.00;95553.81;10493860;28;2033;-68
2023/03/29 23:30:51;;;;;;;;;;;;;;;9.35;100.00;95550.91;10504117;28;2198;-69
2023/03/29 23:35:54;;;;;;;;;;;;;;;9.36;100.00;95554.38;10510241;28;1979;-69
2023/03/29 23:40:59;;;;;;;;;;;;;;;9.38;100.00;95536.94;10505519;28;1973;-67
2023/03/29 23:46:02;;;;;;;;;;;;;;;9.42;100.00;95531.84;10502865;28;2039;-68
2023/03/29 23:51:06;;;;;;;;;;;;;;;9.40;100.00;95525.91;10517044;28;2149;-69
2023/03/29 23:56:08;;;;;;;;;;;;;;;9.43;100.00;95530.75;10524869;28;2044;-69
